Time;durP1;ratioP1;P1;durP2;ratioP2;P2;SDS_P1;SDS_P2;PMS_P1;PMS_P2;Temp;Humidity;BMP_temperature;BMP_pressure;BME280_temperature;BME280_humidity;BME280_pressure;Samples;Min_cycle;Max_cycle;Signal;HPM_P1;HPM_P2
2023/10/27 00:02:00;;;;;;;17.55;4.47;;;11.00;99.90;;;;;;4971802;28;20638;-86
2023/10/27 00:04:25;;;;;;;17.83;4.80;;;11.00;99.90;;;;;;4948252;29;20081;-84
2023/10/27 00:06:51;;;;;;;16.63;5.45;;;11.10;99.90;;;;;;4947687;28;20051;-86
2023/10/27 00:09:16;;;;;;;15.80;4.57;;;11.00;99.90;;;;;;4960210;29;20045;-85
2023/10/27 00:11:42;;;;;;;16.95;4.30;;;;;;;;;;4944059;28;20040;-87
2023/10/27 00:14:08;;;;;;;13.13;4.60;;;11.00;99.90;;;;;;4956459;28;20126;-85
2023/10/27 00:16:34;;;;;;;13.43;4.13;;;11.00;99.90;;;;;;4945828;28;20054;-85
2023/10/27 00:18:59;;;;;;;20.50;4.68;;;11.00;99.90;;;;;;4966718;28;20412;-85
2023/10/27 00:21:25;;;;;;;13.60;4.25;;;;;;;;;;4951190;29;20023;-86
2023/10/27 00:23:51;;;;;;;29.23;5.40;;;11.00;99.90;;;;;;4945734;29;20031;-86
2023/10/27 00:26:17;;;;;;;18.52;5.47;;;11.00;99.90;;;;;;4944285;29;20087;-86
2023/10/27 00:28:45;;;;;;;15.73;4.43;;;11.00;99.90;;;;;;4940834;28;20039;-85
2023/10/27 00:31:11;;;;;;;14.27;5.00;;;11.00;99.90;;;;;;4949021;28;20024;-87
2023/10/27 00:33:37;;;;;;;14.77;5.03;;;12.00;99.90;;;;;;4965283;28;20056;-85
2023/10/27 00:36:02;;;;;;;11.80;4.20;;;11.30;99.90;;;;;;4968473;28;20114;-87
2023/10/27 00:38:30;;;;;;;16.27;5.00;;;;;;;;;;4964897;28;20444;-86
2023/10/27 00:40:55;;;;;;;17.30;4.93;;;11.10;99.90;;;;;;4970707;28;20035;-87
2023/10/27 00:43:21;;;;;;;14.80;4.85;;;;;;;;;;4948151;29;20501;-85
2023/10/27 00:45:50;;;;;;;17.23;4.75;;;11.10;99.90;;;;;;4963882;28;20113;-86
2023/10/27 00:48:17;;;;;;;16.33;4.32;;;;;;;;;;4963733;28;20031;-87
2023/10/27 00:50:42;;;;;;;18.30;4.88;;;11.10;99.90;;;;;;4945832;29;20036;-85
2023/10/27 00:53:09;;;;;;;12.25;5.05;;;11.10;99.90;;;;;;4961432;28;20062;-86
2023/10/27 00:55:35;;;;;;;16.55;4.45;;;11.20;99.90;;;;;;4962432;28;20030;-85
2023/10/27 00:58:03;;;;;;;14.70;4.57;;;11.10;99.90;;;;;;4949057;29;20039;-87
2023/10/27 01:00:30;;;;;;;17.95;5.35;;;11.10;99.90;;;;;;4945105;28;20019;-82
2023/10/27 01:02:55;;;;;;;14.10;4.70;;;11.10;99.90;;;;;;4963705;28;20026;-85
2023/10/27 01:05:21;;;;;;;16.15;4.90;;;11.10;99.90;;;;;;4943332;29;20383;-84
2023/10/27 01:07:47;;;;;;;18.50;5.10;;;;;;;;;;4957366;28;20023;-86
2023/10/27 01:10:13;;;;;;;14.25;4.95;;;11.00;99.90;;;;;;4956997;28;20112;-87
2023/10/27 01:12:38;;;;;;;19.85;5.00;;;11.00;99.90;;;;;;4963131;28;20047;-87
2023/10/27 01:15:04;;;;;;;14.95;4.68;;;11.10;99.90;;;;;;4960585;28;20031;-83
2023/10/27 01:17:30;;;;;;;14.45;4.47;;;11.10;99.90;;;;;;4942956;28;20039;-85
2023/10/27 01:19:56;;;;;;;15.48;4.32;;;;;;;;;;4959626;28;20023;-84
2023/10/27 01:22:22;;;;;;;12.40;4.45;;;;;;;;;;4960097;28;20463;-86
2023/10/27 01:24:48;;;;;;;12.20;4.53;;;;;;;;;;4956313;28;20099;-86
2023/10/27 01:27:14;;;;;;;13.20;3.88;;;11.20;99.90;;;;;;4963986;28;20035;-87
2023/10/27 01:29:41;;;;;;;11.38;3.97;;;11.20;99.90;;;;;;4963814;28;20024;-84
2023/10/27 01:32:07;;;;;;;12.60;3.00;;;;;;;;;;4958027;28;20110;-85
2023/10/27 01:34:33;;;;;;;8.30;3.05;;;11.20;99.90;;;;;;4960580;28;20031;-84
2023/10/27 01:36:58;;;;;;;10.40;4.10;;;12.50;99.90;;;;;;4958112;28;20043;-85
2023/10/27 01:39:24;;;;;;;12.95;3.47;;;12.10;99.90;;;;;;4962706;28;20199;-84
2023/10/27 01:41:49;;;;;;;15.00;4.15;;;12.40;99.90;;;;;;4961446;28;20039;-86
2023/10/27 01:44:15;;;;;;;16.30;4.63;;;11.20;99.90;;;;;;4945146;29;20024;-86
2023/10/27 01:46:41;;;;;;;18.45;5.05;;;;;;;;;;4956040;28;20035;-87
2023/10/27 01:49:07;;;;;;;12.80;4.78;;;;;;;;;;4963134;28;20094;-85
2023/10/27 01:51:33;;;;;;;14.52;3.40;;;;;;;;;;4952304;28;20062;-87
2023/10/27 01:53:59;;;;;;;10.55;3.65;;;11.20;99.90;;;;;;4957434;28;20038;-86
2023/10/27 01:56:25;;;;;;;8.48;3.60;;;;;;;;;;4958701;28;20096;-87
2023/10/27 01:58:53;;;;;;;15.60;4.05;;;;;;;;;;4958359;28;20031;-87
2023/10/27 02:01:19;;;;;;;11.48;3.95;;;11.10;99.90;;;;;;4962654;28;20083;-87
2023/10/27 02:03:45;;;;;;;12.00;4.55;;;13.30;99.90;;;;;;4960905;28;20022;-85
2023/10/27 02:06:11;;;;;;;17.50;4.82;;;11.10;99.90;;;;;;4960082;28;20455;-84
2023/10/27 02:08:38;;;;;;;11.48;3.72;;;11.20;99.90;;;;;;4968777;28;20042;-86
2023/10/27 02:11:04;;;;;;;12.55;4.22;;;11.40;99.90;;;;;;4971627;28;20046;-83
2023/10/27 02:13:30;;;;;;;11.38;4.00;;;11.10;99.90;;;;;;4960863;28;20492;-87
2023/10/27 02:15:56;;;;;;;12.15;3.83;;;11.10;99.90;;;;;;4967198;28;20047;-83
2023/10/27 02:18:22;;;;;;;13.25;3.55;;;11.20;99.90;;;;;;4970141;28;20086;-84
2023/10/27 02:20:50;;;;;;;13.88;4.20;;;11.10;99.90;;;;;;4958539;28;20024;-84
2023/10/27 02:23:16;;;;;;;13.75;3.97;;;11.40;99.90;;;;;;4955781;28;20087;-84
2023/10/27 02:25:42;;;;;;;18.00;4.78;;;;;;;;;;4961747;28;20032;-88
2023/10/27 02:28:08;;;;;;;11.45;4.18;;;11.10;99.90;;;;;;4959186;29;20027;-86
2023/10/27 02:30:34;;;;;;;13.38;4.30;;;;;;;;;;4963651;28;20050;-85
2023/10/27 02:33:00;;;;;;;12.65;3.78;;;;;;;;;;4975464;28;20027;-87
2023/10/27 02:35:25;;;;;;;11.63;3.92;;;11.00;99.90;;;;;;4942364;29;20028;-87
2023/10/27 02:37:53;;;;;;;11.93;4.05;;;11.00;99.90;;;;;;4965267;28;20045;-85
2023/10/27 02:40:19;;;;;;;10.35;3.97;;;11.10;99.90;;;;;;4949576;28;20027;-86
2023/10/27 02:42:45;;;;;;;9.85;3.80;;;;;;;;;;4971577;28;20020;-86
2023/10/27 02:45:11;;;;;;;10.82;4.68;;;11.00;99.90;;;;;;4953782;28;20031;-86
2023/10/27 02:47:36;;;;;;;12.35;3.80;;;11.60;99.90;;;;;;4967840;28;20066;-87
2023/10/27 02:50:05;;;;;;;10.95;3.45;;;11.00;99.90;;;;;;4972114;28;20031;-87
2023/10/27 02:52:31;;;;;;;13.23;3.90;;;11.10;99.90;;;;;;4954305;28;20027;-85
2023/10/27 02:54:57;;;;;;;9.30;3.38;;;12.40;99.90;;;;;;4961799;28;20508;-85
2023/10/27 02:57:22;;;;;;;11.60;3.70;;;11.10;99.90;;;;;;4959570;28;20080;-83
2023/10/27 02:59:48;;;;;;;9.20;3.13;;;10.50;99.90;;;;;;4961871;28;20046;-86
2023/10/27 03:02:14;;;;;;;8.63;3.35;;;11.10;99.90;;;;;;4967515;28;20027;-87
2023/10/27 03:04:40;;;;;;;9.43;3.50;;;11.20;99.90;;;;;;4969412;28;20087;-86
2023/10/27 03:07:05;;;;;;;12.07;3.70;;;11.10;99.90;;;;;;4949009;29;20023;-88
2023/10/27 03:09:31;;;;;;;12.60;4.15;;;;;;;;;;4966571;29;20034;-86
2023/10/27 03:11:57;;;;;;;11.38;3.22;;;11.10;99.90;;;;;;4968019;28;20376;-89
2023/10/27 03:14:23;;;;;;;11.07;3.45;;;;;;;;;;4957078;28;20051;-87
2023/10/27 03:16:49;;;;;;;9.18;3.30;;;;;;;;;;4963598;28;20055;-86
2023/10/27 03:19:14;;;;;;;12.10;3.70;;;11.10;99.90;;;;;;4960415;28;20027;-86
2023/10/27 03:21:40;;;;;;;9.95;2.70;;;12.10;99.90;;;;;;4954990;28;20027;-87
2023/10/27 03:24:06;;;;;;;13.38;3.30;;;11.10;99.90;;;;;;4949114;29;20027;-84
2023/10/27 03:26:32;;;;;;;11.30;3.20;;;11.10;99.90;;;;;;4970929;28;20054;-86
2023/10/27 03:28:57;;;;;;;13.65;3.65;;;11.80;99.90;;;;;;4968226;28;20492;-87
2023/10/27 03:31:23;;;;;;;12.73;3.17;;;11.10;99.90;;;;;;4958346;28;20049;-86
2023/10/27 03:33:49;;;;;;;8.98;2.95;;;;;;;;;;4949202;28;20039;-87
2023/10/27 03:36:15;;;;;;;12.48;3.17;;;11.10;99.90;;;;;;4961157;28;20055;-87
2023/10/27 03:38:40;;;;;;;12.23;3.55;;;11.10;99.90;;;;;;4963260;28;20038;-85
2023/10/27 03:41:06;;;;;;;8.85;2.85;;;11.00;99.90;;;;;;4960251;28;20023;-87
2023/10/27 03:43:34;;;;;;;9.07;3.28;;;11.10;99.90;;;;;;4951203;29;20027;-86
2023/10/27 03:46:00;;;;;;;9.35;2.72;;;11.60;99.90;;;;;;4963259;28;20023;-87
2023/10/27 03:48:25;;;;;;;11.13;2.88;;;11.00;99.90;;;;;;4947054;28;20060;-85
2023/10/27 03:50:52;;;;;;;9.77;2.75;;;10.90;99.90;;;;;;4973359;28;20051;-85
2023/10/27 03:53:18;;;;;;;8.30;2.67;;;11.00;99.90;;;;;;4962754;28;20034;-86
2023/10/27 03:55:50;;;;;;;7.85;2.30;;;10.90;99.90;;;;;;4953382;29;20035;-87
2023/10/27 03:58:17;;;;;;;9.88;2.78;;;10.90;99.90;;;;;;4965636;28;20027;-86
2023/10/27 04:00:42;;;;;;;8.48;2.55;;;12.10;99.90;;;;;;4959532;28;20031;-84
2023/10/27 04:03:09;;;;;;;9.73;2.60;;;10.80;99.90;;;;;;4945890;29;20038;-85
2023/10/27 04:05:35;;;;;;;8.45;2.30;;;10.80;99.90;;;;;;4926075;29;20492;-87
2023/10/27 04:08:00;;;;;;;6.05;1.88;;;10.70;99.90;;;;;;4942395;29;20020;-87
2023/10/27 04:10:26;;;;;;;5.55;1.88;;;10.70;99.90;;;;;;4951039;29;20031;-87
2023/10/27 04:12:52;;;;;;;5.95;2.13;;;12.50;99.90;;;;;;4928855;29;20036;-85
2023/10/27 04:15:18;;;;;;;5.68;1.65;;;10.60;99.90;;;;;;4943188;29;20032;-87
2023/10/27 04:17:43;;;;;;;4.93;1.58;;;10.60;99.90;;;;;;4929615;29;20036;-86
2023/10/27 04:20:09;;;;;;;7.38;1.70;;;10.70;99.90;;;;;;4930930;29;20035;-87
2023/10/27 04:22:35;;;;;;;8.18;2.22;;;10.60;99.90;;;;;;4933952;29;20028;-87
2023/10/27 04:25:01;;;;;;;7.22;2.40;;;10.60;99.90;;;;;;4951079;29;20094;-86
2023/10/27 04:27:28;;;;;;;5.07;1.45;;;;;;;;;;4925423;29;20496;-87
2023/10/27 04:29:54;;;;;;;5.32;1.60;;;10.60;99.90;;;;;;4941187;29;20031;-84
2023/10/27 04:32:20;;;;;;;3.22;1.20;;;10.50;99.90;;;;;;4927141;29;20437;-82
2023/10/27 04:34:47;;;;;;;3.55;1.30;;;;;;;;;;4942232;29;20054;-83
2023/10/27 04:37:12;;;;;;;2.58;1.08;;;10.50;99.90;;;;;;4941473;29;20499;-82
2023/10/27 04:39:38;;;;;;;3.92;1.33;;;10.40;99.90;;;;;;4934755;29;20024;-85
2023/10/27 04:42:04;;;;;;;3.85;1.30;;;10.80;99.90;;;;;;4926534;29;20038;-83
2023/10/27 04:44:30;;;;;;;1.80;0.85;;;10.30;99.90;;;;;;4934377;29;20036;-84
2023/10/27 04:46:56;;;;;;;5.22;1.10;;;;;;;;;;4942759;29;20030;-86
2023/10/27 04:49:22;;;;;;;2.85;0.82;;;10.30;99.90;;;;;;4937930;29;20043;-87
2023/10/27 04:51:48;;;;;;;3.42;0.95;;;;;;;;;;4934385;29;20180;-83
2023/10/27 04:54:14;;;;;;;4.10;0.90;;;;;;;;;;4936501;29;20046;-83
2023/10/27 04:56:40;;;;;;;2.13;0.77;;;;;;;;;;4935297;29;20426;-85
2023/10/27 04:59:06;;;;;;;2.30;0.77;;;;;;;;;;4937354;29;20122;-84
2023/10/27 05:01:31;;;;;;;1.23;0.77;;;10.50;99.90;;;;;;4947253;28;20091;-85
2023/10/27 05:03:57;;;;;;;2.40;0.80;;;10.50;99.90;;;;;;4957573;28;20066;-83
2023/10/27 05:06:22;;;;;;;1.70;0.82;;;10.70;99.90;;;;;;4956987;28;20052;-84
2023/10/27 05:08:50;;;;;;;1.60;0.90;;;10.60;99.90;;;;;;4959300;28;20488;-82
2023/10/27 05:11:17;;;;;;;2.55;1.10;;;10.70;99.90;;;;;;4935285;28;20043;-83
2023/10/27 05:13:42;;;;;;;1.35;0.68;;;10.80;99.90;;;;;;4956538;28;20337;-87
2023/10/27 05:16:09;;;;;;;1.35;0.57;;;10.90;99.90;;;;;;4939103;28;20027;-87
2023/10/27 05:18:35;;;;;;;1.35;0.55;;;;;;;;;;4953807;28;20032;-84
2023/10/27 05:21:03;;;;;;;2.53;0.60;;;10.90;99.90;;;;;;4962753;28;20055;-86
2023/10/27 05:23:29;;;;;;;2.20;0.88;;;;;;;;;;4955962;28;20027;-84
2023/10/27 05:25:55;;;;;;;1.23;0.43;;;;;;;;;;4957064;28;20042;-81
2023/10/27 05:28:21;;;;;;;1.00;0.60;;;;;;;;;;4937980;28;20039;-81
2023/10/27 05:30:50;;;;;;;0.98;0.60;;;11.10;99.90;;;;;;4959559;28;20103;-87
2023/10/27 05:33:16;;;;;;;3.08;0.60;;;11.40;99.90;;;;;;4937222;28;20147;-85
2023/10/27 05:35:42;;;;;;;0.85;0.30;;;11.10;99.90;;;;;;4956684;28;20047;-84
2023/10/27 05:38:08;;;;;;;1.50;0.47;;;11.00;99.90;;;;;;4959750;28;20039;-82
2023/10/27 05:40:34;;;;;;;0.85;0.55;;;11.30;99.90;;;;;;4958380;28;20027;-81
2023/10/27 05:43:00;;;;;;;0.98;0.50;;;11.00;99.90;;;;;;4956463;28;20436;-83
2023/10/27 05:45:25;;;;;;;1.25;0.50;;;11.60;99.90;;;;;;4939070;28;20031;-82
2023/10/27 05:47:51;;;;;;;0.85;0.60;;;;;;;;;;4940709;28;20055;-80
2023/10/27 05:50:17;;;;;;;0.82;0.43;;;11.00;99.90;;;;;;4957283;28;20035;-82
2023/10/27 05:52:43;;;;;;;1.75;0.40;;;;;;;;;;4955816;28;20094;-85
2023/10/27 05:55:09;;;;;;;0.60;0.43;;;11.00;99.90;;;;;;4962621;28;20087;-84
2023/10/27 05:57:35;;;;;;;1.40;0.50;;;;;;;;;;4956562;28;20039;-84
2023/10/27 06:00:01;;;;;;;2.33;0.70;;;;;;;;;;4940540;28;20492;-83
2023/10/27 06:02:27;;;;;;;0.45;0.43;;;;;;;;;;4963003;28;20035;-84
2023/10/27 06:04:52;;;;;;;2.53;0.55;;;11.00;99.90;;;;;;4931560;28;20051;-85
2023/10/27 06:07:18;;;;;;;2.72;0.55;;;;;;;;;;4959956;28;20031;-82
2023/10/27 06:09:44;;;;;;;1.45;0.65;;;11.00;99.90;;;;;;4945316;28;20400;-79
2023/10/27 06:12:10;;;;;;;1.20;0.63;;;11.00;99.90;;;;;;4953572;28;20028;-82
2023/10/27 06:14:44;;;;;;;0.73;0.50;;;11.00;99.90;;;;;;4955960;28;20028;-82
2023/10/27 06:17:13;;;;;;;2.10;0.75;;;11.00;99.90;;;;;;4959386;28;20024;-80
2023/10/27 06:19:39;;;;;;;1.40;0.88;;;11.00;99.90;;;;;;4955416;28;20027;-81
2023/10/27 06:22:05;;;;;;;1.40;0.68;;;11.50;99.90;;;;;;4958340;28;20039;-87
2023/10/27 06:24:31;;;;;;;2.50;0.60;;;11.00;99.90;;;;;;4962175;28;20800;-83
2023/10/27 06:26:57;;;;;;;1.92;0.75;;;11.10;99.90;;;;;;4942772;28;20027;-77
2023/10/27 06:29:23;;;;;;;1.17;0.80;;;11.00;99.90;;;;;;4964202;28;20395;-85
2023/10/27 06:31:49;;;;;;;1.75;0.77;;;13.00;99.90;;;;;;4950107;28;20031;-81
2023/10/27 06:34:14;;;;;;;2.33;0.65;;;11.60;99.90;;;;;;4962323;28;20039;-85
2023/10/27 06:36:40;;;;;;;3.25;1.00;;;11.10;99.90;;;;;;4966023;28;20055;-81
2023/10/27 06:39:06;;;;;;;2.40;0.70;;;11.10;99.90;;;;;;4938054;28;20481;-82
2023/10/27 06:41:31;;;;;;;1.52;0.85;;;11.10;99.90;;;;;;4942683;28;20031;-85
2023/10/27 06:43:57;;;;;;;1.20;0.70;;;11.10;99.90;;;;;;4960444;28;20035;-86
2023/10/27 06:46:23;;;;;;;3.67;1.00;;;11.10;99.90;;;;;;4945259;28;20102;-85
2023/10/27 06:48:50;;;;;;;3.72;0.98;;;11.90;99.90;;;;;;4960540;28;20039;-83
2023/10/27 06:51:16;;;;;;;2.13;0.77;;;11.20;99.90;;;;;;4944131;28;20028;-80
2023/10/27 06:53:43;;;;;;;3.25;0.80;;;11.10;99.90;;;;;;4961042;28;20038;-82
2023/10/27 06:56:08;;;;;;;1.67;0.77;;;12.20;99.90;;;;;;4962405;28;20035;-83
2023/10/27 06:58:34;;;;;;;3.40;0.75;;;11.20;99.90;;;;;;4945510;28;20035;-85
2023/10/27 07:01:07;;;;;;;2.95;1.30;;;11.20;99.90;;;;;;4942493;28;20039;-82
2023/10/27 07:03:34;;;;;;;1.77;0.82;;;11.20;99.90;;;;;;4960018;28;20039;-81
2023/10/27 07:06:00;;;;;;;1.70;0.70;;;11.20;99.90;;;;;;4959676;28;20030;-82
2023/10/27 07:08:26;;;;;;;1.38;0.75;;;;;;;;;;4958694;28;20050;-83
2023/10/27 07:10:57;;;;;;;0.93;0.70;;;11.20;99.90;;;;;;4959441;28;20043;-84
2023/10/27 07:13:24;;;;;;;1.30;0.80;;;11.10;99.90;;;;;;4961090;28;20034;-83
2023/10/27 07:15:50;;;;;;;2.28;1.02;;;;;;;;;;4958106;28;20119;-86
2023/10/27 07:18:16;;;;;;;2.40;1.00;;;11.20;99.90;;;;;;4960272;28;20042;-84
2023/10/27 07:20:41;;;;;;;2.63;0.85;;;11.20;99.90;;;;;;4932973;28;20027;-84
2023/10/27 07:23:07;;;;;;;1.73;1.00;;;11.20;99.90;;;;;;4957898;28;20644;-84
2023/10/27 07:25:33;;;;;;;1.38;0.90;;;;;;;;;;4963226;28;20031;-82
2023/10/27 07:27:59;;;;;;;2.50;0.98;;;;;;;;;;4940753;28;20112;-85
2023/10/27 07:30:25;;;;;;;1.80;1.00;;;11.10;99.90;;;;;;4953645;28;20024;-84
2023/10/27 07:32:51;;;;;;;2.25;1.08;;;11.30;99.90;;;;;;4958603;28;20037;-84
2023/10/27 07:35:16;;;;;;;1.98;1.10;;;11.20;99.90;;;;;;4958956;28;20083;-82
2023/10/27 07:37:42;;;;;;;1.45;0.93;;;11.20;99.90;;;;;;4959288;28;20059;-85
2023/10/27 07:40:08;;;;;;;2.03;0.90;;;11.20;99.90;;;;;;4956847;28;20023;-85
2023/10/27 07:42:33;;;;;;;2.30;1.20;;;11.20;99.90;;;;;;4950283;28;20050;-85
2023/10/27 07:44:59;;;;;;;2.08;1.00;;;11.30;99.90;;;;;;4962473;28;20024;-82
2023/10/27 07:47:25;;;;;;;3.55;1.10;;;;;;;;;;4958172;28;20051;-86
2023/10/27 07:49:52;;;;;;;2.03;1.20;;;11.50;99.90;;;;;;4954622;28;20056;-85
2023/10/27 07:52:19;;;;;;;3.33;1.45;;;11.50;99.90;;;;;;4966763;28;20015;-83
2023/10/27 07:54:53;;;;;;;1.80;1.08;;;11.50;99.90;;;;;;4968504;28;20050;-86
2023/10/27 07:57:19;;;;;;;10.07;1.70;;;;;;;;;;4951839;28;20023;-85
2023/10/27 07:59:45;;;;;;;3.17;1.33;;;11.60;99.90;;;;;;4969812;28;20027;-86
2023/10/27 08:02:11;;;;;;;4.55;1.30;;;;;;;;;;4968744;28;20045;-84
2023/10/27 08:04:37;;;;;;;4.75;1.60;;;11.70;99.90;;;;;;4972708;28;20031;-85
2023/10/27 08:07:04;;;;;;;2.20;1.27;;;11.70;99.90;;;;;;4948455;28;20051;-84
2023/10/27 08:09:36;;;;;;;5.03;1.15;;;11.90;99.90;;;;;;4949740;28;20027;-85
2023/10/27 08:12:03;;;;;;;2.42;1.20;;;11.80;99.90;;;;;;4965173;28;20062;-84
2023/10/27 08:14:29;;;;;;;4.22;1.30;;;;;;;;;;4949140;28;20032;-87
2023/10/27 08:16:54;;;;;;;3.58;1.33;;;11.60;99.90;;;;;;4949955;28;20032;-85
2023/10/27 08:19:20;;;;;;;2.63;0.90;;;;;;;;;;4963954;28;20027;-84
2023/10/27 08:21:48;;;;;;;4.32;1.40;;;11.70;99.90;;;;;;4963163;28;20035;-83
2023/10/27 08:24:14;;;;;;;4.95;1.42;;;;;;;;;;4962051;28;20067;-84
2023/10/27 08:26:40;;;;;;;3.45;1.23;;;;;;;;;;4972004;28;20039;-86
2023/10/27 08:29:06;;;;;;;5.70;1.35;;;;;;;;;;4965060;28;20515;-85
2023/10/27 08:31:32;;;;;;;6.40;1.67;;;;;;;;;;4965131;28;20039;-85
2023/10/27 08:34:00;;;;;;;5.20;1.27;;;;;;;;;;4965241;28;20039;-85
2023/10/27 08:36:27;;;;;;;3.08;1.40;;;12.00;99.90;;;;;;4949240;28;20055;-84
2023/10/27 08:38:56;;;;;;;5.38;1.48;;;12.20;99.90;;;;;;4965009;28;20027;-85
2023/10/27 08:41:25;;;;;;;8.63;1.58;;;12.20;99.90;;;;;;4964879;28;20055;-84
2023/10/27 08:43:52;;;;;;;6.07;1.30;;;12.30;99.90;;;;;;4964358;28;20028;-87
2023/10/27 08:46:18;;;;;;;3.53;1.20;;;;;;;;;;4963054;28;20395;-86
2023/10/27 08:48:44;;;;;;;5.93;1.67;;;12.30;99.90;;;;;;4955096;28;20077;-87
2023/10/27 08:51:10;;;;;;;9.45;3.30;;;;;;;;;;4959894;28;20056;-86
2023/10/27 08:53:43;;;;;;;6.03;2.03;;;12.20;99.90;;;;;;4980275;28;20042;-86
2023/10/27 08:56:12;;;;;;;3.63;1.38;;;12.20;99.90;;;;;;4957367;28;20035;-87
2023/10/27 08:58:40;;;;;;;5.35;1.30;;;12.20;99.90;;;;;;4977713;28;20094;-86
2023/10/27 09:01:06;;;;;;;5.22;1.23;;;;;;;;;;4975731;28;20053;-86
2023/10/27 09:03:32;;;;;;;6.22;1.30;;;;;;;;;;4977168;28;20031;-84
2023/10/27 09:05:58;;;;;;;3.42;1.50;;;12.40;99.90;;;;;;4962859;28;20029;-85
2023/10/27 09:08:24;;;;;;;5.95;1.70;;;;;;;;;;4961629;28;20031;-85
2023/10/27 09:10:50;;;;;;;6.25;1.30;;;;;;;;;;4971529;28;20027;-86
2023/10/27 09:13:22;;;;;;;6.00;1.33;;;12.40;99.90;;;;;;4978438;28;20030;-87
2023/10/27 09:15:50;;;;;;;4.95;1.38;;;12.90;99.90;;;;;;4980072;28;20034;-85
2023/10/27 09:18:16;;;;;;;7.03;2.20;;;12.50;99.90;;;;;;4982881;28;20054;-86
2023/10/27 09:20:49;;;;;;;5.53;1.20;;;12.60;99.90;;;;;;4976444;28;20023;-86
2023/10/27 09:23:15;;;;;;;7.35;1.85;;;12.60;99.90;;;;;;4989477;28;20007;-86
2023/10/27 09:25:41;;;;;;;8.38;1.70;;;12.70;99.90;;;;;;4959610;28;20022;-85
2023/10/27 09:28:07;;;;;;;7.55;1.67;;;;;;;;;;4959044;28;20023;-86
2023/10/27 09:30:38;;;;;;;7.38;1.80;;;13.10;99.90;;;;;;4960258;28;20104;-86
2023/10/27 09:33:18;;;;;;;5.03;1.85;;;13.10;99.90;;;;;;4958516;28;20297;-87
2023/10/27 09:35:49;;;;;;;9.98;1.90;;;15.10;99.90;;;;;;4975724;28;20099;-86
2023/10/27 09:38:15;;;;;;;10.25;1.88;;;;;;;;;;4958741;28;20038;-86
2023/10/27 09:40:42;;;;;;;11.18;2.10;;;13.20;99.90;;;;;;4961026;28;20031;-84
2023/10/27 09:43:21;;;;;;;6.25;1.60;;;13.20;99.90;;;;;;4956095;28;20036;-87
2023/10/27 09:45:56;;;;;;;6.00;1.60;;;13.20;99.90;;;;;;4976232;28;20058;-88
2023/10/27 09:48:27;;;;;;;6.70;1.38;;;13.30;99.90;;;;;;4971326;28;20015;-85
2023/10/27 09:51:16;;;;;;;7.85;1.48;;;13.30;99.90;;;;;;4974722;28;20015;-85
2023/10/27 09:53:46;;;;;;;13.80;1.95;;;13.30;99.90;;;;;;4955584;28;20051;-83
2023/10/27 09:56:13;;;;;;;9.15;1.63;;;13.20;99.90;;;;;;4958349;28;20024;-87
2023/10/27 09:58:39;;;;;;;9.00;1.70;;;;;;;;;;4975452;28;20074;-87
2023/10/27 10:01:05;;;;;;;7.68;2.00;;;13.20;99.90;;;;;;4959225;28;20120;-86
2023/10/27 10:03:32;;;;;;;11.60;1.90;;;13.10;99.90;;;;;;4957669;28;20087;-85
2023/10/27 10:06:18;;;;;;;7.32;1.95;;;13.00;99.90;;;;;;4973619;28;20020;-85
2023/10/27 10:09:05;;;;;;;10.13;2.35;;;13.00;99.90;;;;;;4958854;28;20022;-85
2023/10/27 10:11:41;;;;;;;7.00;1.48;;;12.90;99.90;;;;;;4979552;28;20031;-87
2023/10/27 10:14:07;;;;;;;8.27;1.50;;;;;;;;;;4955874;28;20045;-87
2023/10/27 10:16:44;;;;;;;5.30;1.50;;;12.70;99.90;;;;;;4959103;28;20094;-85
2023/10/27 10:19:09;;;;;;;5.07;1.73;;;12.60;99.90;;;;;;4965470;28;20033;-87
2023/10/27 10:21:38;;;;;;;8.50;1.70;;;;;;;;;;4954610;28;20100;-86
2023/10/27 10:24:08;;;;;;;7.15;1.65;;;12.40;99.90;;;;;;4955254;28;20034;-84
2023/10/27 10:27:02;;;;;;;6.93;1.50;;;12.40;99.90;;;;;;4969858;28;20054;-84
2023/10/27 10:29:29;;;;;;;7.38;1.55;;;12.50;99.90;;;;;;4968997;28;20050;-84
2023/10/27 10:32:34;;;;;;;7.07;1.50;;;12.50;99.90;;;;;;4951242;28;20051;-85
2023/10/27 10:35:30;;;;;;;6.40;1.60;;;12.60;99.90;;;;;;4969736;28;20012;-83
2023/10/27 10:37:56;;;;;;;5.00;1.40;;;12.60;99.90;;;;;;4939066;28;20058;-84
2023/10/27 10:40:24;;;;;;;5.22;2.08;;;12.80;99.90;;;;;;4969511;28;20023;-87
2023/10/27 10:43:20;;;;;;;4.15;1.20;;;12.70;99.90;;;;;;4968066;28;20027;-87
2023/10/27 10:45:56;;;;;;;6.38;1.55;;;13.00;99.90;;;;;;4967529;28;20015;-87
2023/10/27 10:48:27;;;;;;;5.05;1.40;;;13.60;99.90;;;;;;4970844;28;20067;-88
2023/10/27 10:51:03;;;;;;;2.25;1.10;;;13.90;99.90;;;;;;4969567;28;20039;-90
2023/10/27 10:53:30;;;;;;;4.65;1.10;;;;;;;;;;4974506;28;20027;-83
2023/10/27 10:56:00;;;;;;;4.38;1.17;;;14.20;99.90;;;;;;4973215;28;20031;-88
2023/10/27 10:58:28;;;;;;;4.23;1.20;;;14.20;99.90;;;;;;4963062;28;20035;-87
2023/10/27 17:16:19;;;;;;;11.88;3.50;;;12.50;99.90;;;;;;5056262;28;20444;-85
2023/10/27 17:18:51;;;;;;;9.70;3.95;;;12.50;99.90;;;;;;5049340;28;20120;-86
2023/10/27 17:21:20;;;;;;;11.65;3.17;;;12.50;99.90;;;;;;5040777;28;20021;-89
2023/10/27 17:23:50;;;;;;;14.70;4.00;;;12.50;99.90;;;;;;5042415;28;20505;-85
2023/10/27 17:26:16;;;;;;;7.82;3.03;;;12.40;99.90;;;;;;5039596;28;20021;-87
2023/10/27 17:28:42;;;;;;;10.02;3.05;;;12.50;99.90;;;;;;5039836;28;20040;-83
2023/10/27 17:31:09;;;;;;;9.15;3.00;;;12.40;99.90;;;;;;5040874;28;20025;-87
2023/10/27 17:33:38;;;;;;;7.72;2.30;;;;;;;;;;5039701;28;20026;-85
2023/10/27 17:36:14;;;;;;;6.28;2.28;;;12.40;99.90;;;;;;5039920;28;20049;-86
2023/10/27 17:38:41;;;;;;;8.32;1.95;;;12.40;99.90;;;;;;5040839;28;20057;-87
2023/10/27 17:41:08;;;;;;;7.60;2.58;;;12.50;99.90;;;;;;5042266;28;20021;-85
2023/10/27 17:43:34;;;;;;;7.40;2.05;;;12.30;99.90;;;;;;5042201;28;20386;-87
2023/10/27 17:46:04;;;;;;;7.72;1.88;;;12.40;99.90;;;;;;5041162;28;20021;-88
2023/10/27 17:48:29;;;;;;;9.15;1.80;;;12.70;99.90;;;;;;5040589;28;20022;-87
2023/10/27 17:50:59;;;;;;;7.82;2.50;;;12.50;99.90;;;;;;5039409;28;20072;-84
2023/10/27 17:53:26;;;;;;;8.68;2.47;;;12.40;99.90;;;;;;5039470;28;20055;-84
2023/10/27 17:55:53;;;;;;;7.97;1.80;;;12.40;99.90;;;;;;5039921;28;20386;-86
2023/10/27 17:58:22;;;;;;;8.02;2.60;;;12.30;99.90;;;;;;5040501;28;20029;-86
2023/10/27 18:00:49;;;;;;;8.63;2.78;;;;;;;;;;5040379;28;20488;-88
2023/10/27 18:03:15;;;;;;;9.68;2.88;;;12.40;99.90;;;;;;5043453;28;20071;-86
2023/10/27 18:05:41;;;;;;;7.53;2.20;;;12.50;99.90;;;;;;5047172;28;20025;-87
2023/10/27 18:08:07;;;;;;;9.10;2.50;;;12.40;99.90;;;;;;5044045;28;20021;-87
2023/10/27 18:10:44;;;;;;;5.90;2.10;;;12.60;99.90;;;;;;5042858;28;20025;-87
2023/10/27 18:13:15;;;;;;;11.82;2.58;;;12.60;99.90;;;;;;5044909;28;20040;-87
2023/10/27 18:15:42;;;;;;;7.25;1.65;;;;;;;;;;5046793;28;20033;-85
2023/10/27 18:18:08;;;;;;;7.32;2.75;;;12.40;99.90;;;;;;5042364;28;20526;-86
2023/10/27 18:20:38;;;;;;;9.00;2.22;;;12.40;99.90;;;;;;5031199;28;20045;-84
2023/10/27 18:23:08;;;;;;;12.17;2.80;;;12.40;99.90;;;;;;5031344;28;20385;-85
2023/10/27 18:25:34;;;;;;;7.32;1.90;;;;;;;;;;5038165;28;20438;-83
2023/10/27 18:28:00;;;;;;;13.02;2.92;;;12.40;99.90;;;;;;5034854;28;20021;-85
2023/10/27 18:30:26;;;;;;;5.90;2.00;;;12.30;99.90;;;;;;5034066;28;20283;-87
2023/10/27 18:32:56;;;;;;;6.10;1.92;;;12.40;99.90;;;;;;5039643;28;20025;-83
2023/10/27 18:35:22;;;;;;;7.35;2.10;;;;;;;;;;5044086;28;20028;-86
2023/10/27 18:37:50;;;;;;;6.65;2.03;;;12.30;99.90;;;;;;5037563;28;20029;-87
2023/10/27 18:40:16;;;;;;;6.65;2.15;;;13.80;99.90;;;;;;5035951;28;20045;-87
2023/10/27 18:42:43;;;;;;;5.47;2.33;;;;;;;;;;5040173;28;20048;-84
2023/10/27 18:45:09;;;;;;;6.63;2.13;;;12.30;99.90;;;;;;5044500;28;20022;-84
2023/10/27 18:47:35;;;;;;;7.93;1.70;;;;;;;;;;5061753;28;20025;-85
2023/10/27 18:50:01;;;;;;;4.70;1.55;;;12.30;99.90;;;;;;5042842;28;20044;-84
2023/10/27 18:52:27;;;;;;;7.85;2.15;;;12.20;99.90;;;;;;5050323;28;20025;-83
2023/10/27 18:54:53;;;;;;;4.63;1.85;;;;;;;;;;5044259;28;20093;-87
2023/10/27 18:57:19;;;;;;;7.65;2.00;;;12.30;99.90;;;;;;5047805;28;20013;-84
2023/10/27 18:59:47;;;;;;;7.03;2.00;;;12.30;99.90;;;;;;5044363;28;20022;-85
2023/10/27 19:02:14;;;;;;;5.40;1.80;;;;;;;;;;5041900;28;20025;-85
2023/10/27 19:04:41;;;;;;;6.18;1.67;;;;;;;;;;5052622;28;20026;-83
2023/10/27 19:07:07;;;;;;;7.13;1.90;;;12.30;99.90;;;;;;5036513;28;20032;-81
2023/10/27 19:09:33;;;;;;;6.32;1.30;;;;;;;;;;5035671;28;20030;-85
2023/10/27 19:11:59;;;;;;;9.02;2.13;;;;;;;;;;5037476;28;20030;-86
2023/10/27 19:14:25;;;;;;;7.45;1.58;;;12.30;99.90;;;;;;5043780;28;20324;-86
2023/10/27 19:16:51;;;;;;;3.90;1.40;;;12.20;99.90;;;;;;5037922;28;20033;-86
2023/10/27 19:19:17;;;;;;;4.82;1.75;;;;;;;;;;5036372;28;20036;-86
2023/10/27 19:21:46;;;;;;;5.90;1.50;;;12.30;99.90;;;;;;5038272;28;20075;-86
2023/10/27 19:24:12;;;;;;;8.95;2.80;;;12.30;99.90;;;;;;5036351;28;20022;-84
2023/10/27 19:26:38;;;;;;;8.57;3.30;;;12.30;99.90;;;;;;5037185;28;20036;-85